createdAt,value
2022-11-10T00:01:43.624Z,2.10
2022-11-10T00:16:44.267Z,2.20
2022-11-10T00:31:45.586Z,1.80
2022-11-10T00:46:45.931Z,2.00
2022-11-10T01:01:46.052Z,1.80
2022-11-10T01:16:46.169Z,1.70
2022-11-10T01:31:46.772Z,2.30
2022-11-10T01:46:47.355Z,1.90
2022-11-10T02:01:48.498Z,1.70
2022-11-10T02:16:49.116Z,2.00
2022-11-10T02:31:49.263Z,2.40
2022-11-10T02:46:49.302Z,2.40
2022-11-10T03:01:49.952Z,2.40
2022-11-10T03:16:51.619Z,2.40
2022-11-10T03:31:52.254Z,2.00
2022-11-10T03:46:52.767Z,2.30
2022-11-10T04:01:53.464Z,2.60
2022-11-10T04:16:54.005Z,2.60
2022-11-10T04:31:54.116Z,2.40
2022-11-10T04:46:54.182Z,2.40
2022-11-10T05:01:54.299Z,2.30
2022-11-10T05:16:54.370Z,3.40
2022-11-10T05:31:55.621Z,2.90
2022-11-10T05:46:56.548Z,3.20
2022-11-10T06:01:56.820Z,3.70
2022-11-10T06:16:56.914Z,3.90
2022-11-10T06:31:57.624Z,4.30
2022-11-10T06:46:58.609Z,5.00
2022-11-10T07:01:59.358Z,4.70
2022-11-10T07:16:59.837Z,5.20
2022-11-10T07:32:00.494Z,5.10
2022-11-10T07:47:01.641Z,4.50
2022-11-10T08:02:03.281Z,4.40
2022-11-10T08:17:04.250Z,5.70
2022-11-10T08:32:06.157Z,4.30
2022-11-10T08:47:07.747Z,5.10
2022-11-10T09:02:07.860Z,5.00
2022-11-10T09:17:08.606Z,4.90
2022-11-10T09:32:09.542Z,5.40
2022-11-10T09:47:12.140Z,5.50
2022-11-10T10:02:12.752Z,4.60
2022-11-10T10:17:13.342Z,3.50
2022-11-10T10:32:12.942Z,4.40
2022-11-10T10:47:13.022Z,3.90
2022-11-10T11:02:13.800Z,4.10
2022-11-10T11:17:14.762Z,6.10
2022-11-10T11:32:16.203Z,5.70
2022-11-10T11:47:16.709Z,4.20
2022-11-10T12:02:16.911Z,5.90
2022-11-10T12:17:17.417Z,3.20
2022-11-10T12:32:17.521Z,3.20
2022-11-10T12:47:18.682Z,3.80
2022-11-10T13:02:20.093Z,3.70
2022-11-10T13:17:20.943Z,3.00
2022-11-10T13:32:21.572Z,2.90
2022-11-10T13:47:21.701Z,3.00
2022-11-10T14:02:21.773Z,2.80
2022-11-10T14:17:22.361Z,2.50
2022-11-10T14:32:22.570Z,2.90
2022-11-10T14:47:22.587Z,3.20
2022-11-10T15:02:24.133Z,3.70
2022-11-10T15:17:24.633Z,3.00
2022-11-10T15:32:26.111Z,3.50
2022-11-10T15:47:26.796Z,3.40
2022-11-10T16:02:27.437Z,4.40
2022-11-10T16:17:28.003Z,4.90
2022-11-10T16:32:28.822Z,5.20
2022-11-10T16:47:29.699Z,5.90
2022-11-10T17:02:29.444Z,6.80
2022-11-10T17:17:29.450Z,4.60
2022-11-10T17:32:58.040Z,4.30
2022-11-10T17:47:35.706Z,3.80
2022-11-10T18:02:36.709Z,3.90
2022-11-10T18:17:36.945Z,4.20
2022-11-10T18:32:37.510Z,4.50
2022-11-10T18:47:37.684Z,4.50
2022-11-10T19:02:37.622Z,3.70
2022-11-10T19:17:39.151Z,3.50
2022-11-10T19:32:40.361Z,3.70
2022-11-10T19:47:40.546Z,2.60
2022-11-10T20:02:45.370Z,2.70
2022-11-10T20:17:46.220Z,3.00
2022-11-10T20:32:46.963Z,3.10
2022-11-10T20:47:48.950Z,3.00
2022-11-10T21:02:49.478Z,3.00
2022-11-10T21:17:49.810Z,2.50
2022-11-10T21:32:49.707Z,3.20
2022-11-10T21:47:49.921Z,3.00
2022-11-10T22:02:49.909Z,3.40
2022-11-10T22:17:50.230Z,3.70
2022-11-10T22:32:50.133Z,2.90
2022-11-10T22:47:50.338Z,3.00
2022-11-10T23:02:51.359Z,3.60
2022-11-10T23:17:51.605Z,3.60
2022-11-10T23:32:52.112Z,2.90
2022-11-10T23:47:54.092Z,3.40
